Terminal Aerodrome Forecast
Issued by NWS Spokane, WA

Home | Current Version | Previous Version | Text Only | Print | Product List | Glossary On
Versions: 1 2 3 4 5 6 7 8 9 10 11 12 13 14 15 16 17 18 19 20 21 22 23 24 25 26 27 28 29 30 31 32 33 34 35 36 37 38 39 40 41 42 43 44 45
000
FTUS46 KOTX 261740 CCA
TAFEAT
TAF COR
KEAT 261740Z 2618/2718 00000KT 4SM BR SCT006 OVC012
     FM261900 VRB03KT 4SM BR OVC010
     FM262000 VRB03KT 4SM BR OVC013
     FM270600 VRB03KT 6SM BR SCT005 OVC012
     FM270900 VRB02KT 5SM BR OVC009
     FM271500 28007KT P6SM SCT009 OVC050=

USA.gov is the U.S. government's official web portal to all federal, state and local government web resources and services.